Latest Weather Observations for Jandakot

IDW60901

Issued at 6:11 pm WST Wednesday 27 May 2015 (issued every 10 minutes, with the page automatically refreshed every 10 minutes)

About weather observations | Map of Perth area stations | Latest observations for Perth area | Other Formats
Station Details ID: 009172 Name: JANDAKOT AERO Lat: -32.10 Lon: 115.88 Height: 30.0 m
Data from the previous 72 hours. | See also: Recent months at Jandakot
Date/Time
WST
Tmp

°C
App
Tmp
°C
Dew
Point
°C
Rel
Hum
%
Delta-T

°C
Wind Press
QNH
hPa
Press
MSL
hPa
Rain
since
9 am
mm
Dir
 
Spd
km/h
Gust
km/h
Spd
kts
Gust
kts
27/06:00pm 13.5 10.3 5.1 57 3.9 S 11 13 6 7 1021.7 1021.7 0.0
27/05:30pm 14.3 11.2 5.4 55 4.2 SSE 11 15 6 8 1021.5 1021.5 0.0
27/05:00pm 15.7 12.1 4.8 48 5.1 S 13 19 7 10 1021.5 1021.5 0.0
27/04:30pm 16.9 12.8 4.3 43 5.9 S 15 20 8 11 1021.4 1021.4 0.0
27/04:00pm 17.2 12.8 4.8 44 5.9 SSE 17 22 9 12 1021.4 1021.4 0.0
27/03:30pm 17.9 13.1 4.7 41 6.3 S 19 26 10 14 1021.3 1021.3 0.0
27/03:00pm 18.0 13.1 3.9 39 6.6 S 19 30 10 16 1021.3 1021.3 0.0
27/02:30pm 17.9 12.4 4.1 40 6.5 S 22 33 12 18 1021.5 1021.5 0.0
27/02:00pm 17.3 12.2 4.3 42 6.1 S 20 30 11 16 1021.7 1021.7 0.0
27/01:30pm 17.6 12.2 4.5 42 6.2 SSE 22 35 12 19 1021.9 1021.9 0.0
27/01:00pm 17.8 12.8 4.5 41 6.3 SSE 20 28 11 15 1022.1 1022.1 0.0
27/12:30pm 18.1 13.4 5.0 42 6.3 S 19 28 10 15 1022.6 1022.6 0.0
27/12:00pm 17.2 12.2 4.8 44 5.9 SSE 20 28 11 15 1023.1 1023.1 0.0
27/11:30am 16.6 11.6 4.4 44 5.7 SSE 20 30 11 16 1023.6 1023.6 0.0
27/11:00am 16.7 11.8 4.3 43 5.8 SE 19 26 10 14 1024.0 1024.0 0.0
27/10:30am 15.7 12.6 7.4 57 4.1 ESE 13 19 7 10 1024.3 1024.3 0.0
27/10:00am 14.8 13.1 8.4 65 3.2 ESE 7 11 4 6 1024.5 1024.5 0.0
27/09:30am 13.7 11.8 8.9 73 2.4 SE 9 13 5 7 1024.6 1024.6 0.0
27/09:00am 12.1 12.1 9.9 86 1.1 CALM 0 0 0 0 1024.5 1024.5 0.0
27/08:30am 10.6 10.4 9.2 91 0.7 CALM 0 0 0 0 1024.3 1024.3 0.0
27/08:00am 9.6 7.5 8.4 92 0.6 ESE 9 11 5 6 1024.0 1024.0 0.0
27/07:30am 7.6 5.2 7.2 97 0.2 ESE 9 9 5 5 1023.9 1023.9 0.0
27/07:00am 7.4 5.9 7.0 97 0.2 E 4 9 2 5 1023.8 1023.8 0.0
27/06:30am 7.3 5.4 6.6 95 0.3 SE 6 7 3 4 1023.6 1023.6 0.0
27/06:00am 6.3 3.6 5.6 95 0.3 SE 9 11 5 6 1023.2 1023.2 0.0
27/05:30am 6.6 4.0 5.9 95 0.3 ESE 9 11 5 6 1023.0 1023.0 0.0
27/05:00am 7.5 5.7 7.1 97 0.2 E 6 9 3 5 1022.8 1022.8 0.0
27/04:30am 6.7 4.1 6.0 95 0.3 E 9 11 5 6 1022.8 1022.8 0.0
27/04:00am 7.9 6.1 7.3 96 0.3 ESE 6 6 3 3 1023.1 1023.1 0.0
27/03:30am 7.7 5.8 7.5 99 0.1 E 7 9 4 5 1023.0 1023.0 0.0
27/03:00am 8.1 5.7 7.2 94 0.4 E 9 11 5 6 1023.2 1023.2 0.0
27/02:30am 7.8 6.4 7.2 96 0.3 SE 4 6 2 3 1023.4 1023.4 0.0
27/02:00am 8.6 6.5 8.2 97 0.2 SSE 9 13 5 7 1023.4 1023.4 0.0
27/01:57am 8.6 6.1 8.2 97 0.2 S 11 13 6 7 1023.4 1023.4 0.0
27/01:41am 6.6 5.8 6.4 99 0.1 CALM 0 0 0 0 1023.4 1023.4 0.0
27/01:38am 7.2 6.6 7.2 100 0.0 CALM 0 0 0 0 1023.4 1023.4 0.0
27/01:30am 7.3 5.3 6.4 94 0.4 S 6 9 3 5 1023.4 1023.4 0.0
27/01:19am 6.8 5.6 6.4 97 0.2 SSW 2 9 1 5 1023.4 1023.4 0.0
27/01:00am 7.1 5.6 6.7 97 0.2 S 4 9 2 5 1023.3 1023.3 0.0
27/12:57am 7.2 5.3 6.5 95 0.3 S 6 9 3 5 1023.3 1023.3 0.0
27/12:39am 7.9 5.5 7.0 94 0.4 SSE 9 11 5 6 1023.3 1023.3 0.0
27/12:30am 7.1 5.1 6.9 99 0.1 SSE 7 9 4 5 1023.4 1023.4 0.0
27/12:00am 8.8 6.7 8.4 97 0.2 SE 9 11 5 6 1023.5 1023.5 0.0
 
Date/Time
WST
Tmp

°C
App
Tmp
°C
Dew
Point
°C
Rel
Hum
%
Delta-T

°C
Wind Press
QNH
hPa
Press
MSL
hPa
Rain
since
9 am
mm
Dir
 
Spd
km/h
Gust
km/h
Spd
kts
Gust
kts
26/11:57pm 8.8 6.7 8.4 97 0.2 SE 9 11 5 6 1023.5 1023.5 0.0
26/11:35pm 8.0 6.2 7.8 99 0.1 SSE 7 9 4 5 1023.7 1023.7 0.0
26/11:30pm 8.3 6.4 7.7 96 0.3 S 7 9 4 5 1023.7 1023.7 0.0
26/11:00pm 7.4 5.3 6.5 94 0.4 SSE 7 9 4 5 1023.8 1023.8 0.0
26/10:30pm 9.5 9.0 8.0 90 0.7 CALM 0 4 0 2 1024.1 1024.1 0.0
26/10:00pm 8.5 7.9 7.4 93 0.5 CALM 0 0 0 0 1024.1 1024.1 0.0
26/09:30pm 9.0 6.8 8.0 93 0.5 SSW 9 11 5 6 1024.2 1024.2 0.0
26/09:00pm 10.1 8.6 9.3 95 0.4 S 7 9 4 5 1024.0 1024.0 0.0
26/08:30pm 10.7 9.2 9.3 91 0.7 S 7 11 4 6 1024.0 1024.0 0.0
26/08:00pm 10.6 8.8 9.4 92 0.6 SE 9 11 5 6 1023.9 1023.9 0.0
26/07:30pm 11.1 11.1 9.7 91 0.7 CALM 0 0 0 0 1023.7 1023.7 0.0
26/07:00pm 11.9 10.8 9.9 87 1.0 WSW 6 7 3 4 1023.4 1023.4 0.0
26/06:30pm 12.3 11.0 9.9 85 1.2 WSW 7 9 4 5 1023.3 1023.3 0.0
26/06:00pm 14.5 13.2 11.3 81 1.7 WSW 9 11 5 6 1022.9 1022.9 0.0
26/05:30pm 15.8 14.4 10.9 72 2.6 WSW 9 11 5 6 1022.9 1022.9 0.0
26/05:00pm 17.5 15.4 9.9 61 4.0 SW 11 13 6 7 1022.8 1022.8 0.0
26/04:30pm 18.7 16.3 10.0 57 4.6 SW 13 20 7 11 1022.6 1022.6 0.0
26/04:00pm 18.9 16.5 10.1 56 4.7 S 13 17 7 9 1022.7 1022.7 0.0
26/03:30pm 18.6 17.8 11.2 62 4.0 SSE 6 11 3 6 1022.6 1022.6 0.0
26/03:00pm 18.5 17.0 11.8 65 3.7 WSW 11 13 6 7 1022.7 1022.7 0.0
26/02:30pm 18.7 17.9 11.8 64 3.8 W 7 11 4 6 1022.6 1022.6 0.0
26/02:00pm 18.0 18.0 12.4 70 3.1 NNE 4 9 2 5 1022.7 1022.7 0.0
26/01:30pm 17.7 17.3 12.5 71 2.9 NW 6 9 3 5 1023.0 1023.0 0.0
26/01:00pm 17.3 17.9 13.2 77 2.3 ENE 2 6 1 3 1023.1 1023.1 0.0
26/12:30pm 17.1 16.8 13.4 79 2.1 W 7 11 4 6 1023.5 1023.5 0.0
26/12:00pm 17.4 18.2 12.7 74 2.6 CALM 0 4 0 2 1023.8 1023.8 0.0
26/11:30am 16.6 16.9 13.4 81 1.8 E 4 7 2 4 1024.1 1024.1 0.0
26/11:00am 15.5 14.6 13.7 89 1.0 ESE 11 13 6 7 1024.3 1024.3 0.0
26/10:50am 15.4 14.5 13.8 90 0.9 ESE 11 13 6 7 1024.5 1024.5 0.0
26/10:35am 15.4 14.6 13.0 85 1.3 S 9 13 5 7 1024.7 1024.7 0.0
26/10:30am 15.6 14.4 12.7 83 1.6 S 11 15 6 8 1024.8 1024.8 0.0
26/10:00am 15.0 15.3 11.0 77 2.1 CALM 0 4 0 2 1024.8 1024.8 0.0
26/09:30am 14.0 13.2 11.0 82 1.6 ENE 6 9 3 5 1024.6 1024.6 0.0
26/09:00am 13.3 12.4 10.6 84 1.4 SW 6 13 3 7 1024.4 1024.4 0.0
26/08:30am 12.2 10.2 10.2 87 1.0 NNE 11 15 6 8 1023.9 1023.9 0.0
26/08:00am 10.1 8.7 9.5 96 0.3 NNE 7 9 4 5 1023.6 1023.6 0.0
26/07:58am 10.0 8.6 9.4 96 0.3 NNE 7 9 4 5 1023.7 1023.7 0.0
26/07:30am 8.6 6.9 8.2 97 0.2 N 7 9 4 5 1023.6 1023.6 0.0
26/07:00am 8.8 7.1 8.2 96 0.3 NNE 7 9 4 5 1023.4 1023.4 0.0
26/06:46am 8.7 7.0 8.3 97 0.2 NNE 7 9 4 5 1023.3 1023.3 0.0
26/06:30am 8.5 6.8 8.3 99 0.1 NNE 7 9 4 5 1023.1 1023.1 0.0
26/06:00am 7.7 5.7 7.3 97 0.2 NNE 7 9 4 5 1022.8 1022.8 0.0
26/05:30am 7.1 5.1 6.9 99 0.1 N 7 9 4 5 1022.6 1022.6 0.0
26/05:00am 8.2 5.9 7.6 96 0.3 N 9 11 5 6 1022.3 1022.3 0.0
26/04:30am 7.4 6.3 7.0 97 0.2 NNE 2 7 1 4 1022.3 1022.3 0.0
26/04:00am 7.6 6.1 6.7 94 0.4 ENE 4 6 2 3 1022.3 1022.3 0.0
26/03:30am 7.8 5.9 6.9 94 0.4 ENE 6 7 3 4 1022.3 1022.3 0.0
26/03:00am 9.0 7.5 8.4 96 0.3 NE 6 7 3 4 1022.4 1022.4 0.0
26/02:30am 9.5 8.4 8.3 92 0.6 ESE 4 7 2 4 1022.4 1022.4 0.0
26/02:00am 10.4 8.9 9.2 92 0.6 ENE 7 9 4 5 1022.4 1022.4 0.0
26/01:30am 11.7 10.8 10.5 92 0.6 NNW 6 7 3 4 1022.5 1022.5 0.0
26/01:00am 11.1 10.7 9.7 91 0.7 W 2 7 1 4 1022.5 1022.5 0.0
26/12:30am 9.3 8.0 7.8 90 0.7 NNE 4 6 2 3 1022.6 1022.6 0.0
26/12:00am 10.1 8.6 8.5 90 0.8 NNE 6 7 3 4 1022.8 1022.8 0.0
 
Date/Time
WST
Tmp

°C
App
Tmp
°C
Dew
Point
°C
Rel
Hum
%
Delta-T

°C
Wind Press
QNH
hPa
Press
MSL
hPa
Rain
since
9 am
mm
Dir
 
Spd
km/h
Gust
km/h
Spd
kts
Gust
kts
25/11:30pm 10.5 8.8 8.4 87 1.0 ESE 7 11 4 6 1023.2 1023.2 0.0
25/11:00pm 9.8 7.6 7.9 88 0.9 SE 9 11 5 6 1023.3 1023.3 0.0
25/10:30pm 11.1 9.7 8.7 85 1.2 S 6 7 3 4 1023.4 1023.4 0.0
25/10:00pm 11.7 10.4 9.1 84 1.3 S 6 15 3 8 1023.3 1023.3 0.0
25/09:30pm 9.9 9.4 7.8 87 1.0 CALM 0 9 0 5 1023.1 1023.1 0.0
25/09:00pm 10.2 9.8 8.1 87 1.0 CALM 0 0 0 0 1022.9 1022.9 0.0
25/08:30pm 10.5 8.9 8.0 84 1.2 E 6 7 3 4 1022.7 1022.7 0.0
25/08:00pm 11.1 10.7 8.4 83 1.3 CALM 0 0 0 0 1022.6 1022.6 0.0
25/07:30pm 10.7 9.7 7.3 79 1.6 SW 2 6 1 3 1022.4 1022.4 0.0
25/07:00pm 11.9 9.7 7.8 76 2.0 SW 9 11 5 6 1022.1 1022.1 0.0
25/06:30pm 13.2 11.1 8.4 72 2.4 SW 9 9 5 5 1021.9 1021.9 0.0
25/06:00pm 16.0 14.1 9.0 63 3.6 SW 9 9 5 5 1021.6 1021.6 0.0
25/05:30pm 17.0 14.6 8.6 57 4.3 WSW 11 13 6 7 1021.4 1021.4 0.0
25/05:00pm 18.7 16.1 7.9 49 5.5 WSW 11 15 6 8 1021.2 1021.2 0.0
25/04:30pm 19.6 15.6 6.6 42 6.5 WSW 17 24 9 13 1021.1 1021.1 0.0
25/04:00pm 20.3 16.2 6.3 40 7.0 WSW 17 24 9 13 1021.0 1021.0 0.0
25/03:30pm 20.9 16.2 5.3 36 7.7 SW 19 24 10 13 1020.9 1020.9 0.0
25/03:00pm 21.4 17.3 6.0 36 7.7 SW 17 24 9 13 1020.8 1020.8 0.0
25/02:30pm 21.5 18.5 7.6 40 7.2 SW 13 19 7 10 1020.7 1020.7 0.0
25/02:00pm 21.1 19.0 6.7 39 7.3 SSW 7 11 4 6 1020.7 1020.7 0.0
25/01:30pm 21.5 18.2 6.2 37 7.7 WSW 13 17 7 9 1020.9 1020.9 0.0
25/01:00pm 21.3 19.5 7.0 39 7.3 WNW 6 7 3 4 1021.1 1021.1 0.0
25/12:30pm 20.8 18.2 6.2 38 7.3 SW 9 15 5 8 1021.4 1021.4 0.0
25/12:00pm 20.3 18.9 7.4 43 6.6 SW 4 11 2 6 1021.7 1021.7 0.0
25/11:30am 19.8 18.2 8.7 48 5.8 SSW 7 13 4 7 1022.2 1022.2 0.0
25/11:00am 18.8 17.3 9.0 53 5.1 SE 7 11 4 6 1022.5 1022.5 0.0
25/10:30am 18.1 16.5 8.6 54 4.9 SE 7 11 4 6 1022.8 1022.8 0.0
25/10:00am 17.3 15.7 8.7 57 4.4 SSE 7 11 4 6 1022.8 1022.8 0.0
25/09:30am 16.3 13.4 8.2 58 4.1 ESE 13 15 7 8 1022.7 1022.7 0.0
25/09:00am 14.7 12.7 8.5 66 3.1 ESE 9 13 5 7 1022.6 1022.6 0.0
25/08:30am 12.4 10.3 8.1 75 2.1 SSE 9 15 5 8 1022.7 1022.7 0.0
25/08:00am 9.0 6.6 7.1 88 0.9 E 9 17 5 9 1022.4 1022.4 0.0
25/07:30am 8.3 6.1 6.3 87 0.9 SE 7 9 4 5 1022.5 1022.5 0.0
25/07:00am 10.4 8.2 7.9 84 1.2 SSE 9 11 5 6 1022.2 1022.2 0.0
25/06:30am 11.4 9.2 7.7 78 1.8 E 9 11 5 6 1021.8 1021.8 0.0
25/06:00am 12.7 9.3 7.6 71 2.5 E 15 19 8 10 1021.7 1021.7 0.0
25/05:30am 12.6 10.1 8.4 75 2.1 E 11 15 6 8 1021.7 1021.7 0.0
25/05:00am 12.9 9.6 8.2 73 2.3 ESE 15 17 8 9 1021.8 1021.8 0.0
25/04:30am 10.9 9.1 9.5 91 0.7 E 9 13 5 7 1021.7 1021.7 0.0
25/04:00am 11.1 11.0 9.5 90 0.8 CALM 0 0 0 0 1022.0 1022.0 0.0
25/03:30am 10.8 9.5 9.2 90 0.8 SE 6 7 3 4 1022.1 1022.1 0.0
25/03:00am 10.9 8.7 9.3 90 0.8 SE 11 13 6 7 1022.3 1022.3 0.0
25/02:30am 10.9 9.5 9.5 91 0.7 SSE 7 9 4 5 1022.2 1022.2 0.0
25/02:00am 11.0 9.6 9.6 91 0.7 ESE 7 9 4 5 1022.2 1022.2 0.0
25/01:30am 11.3 10.0 9.9 91 0.7 SSE 7 9 4 5 1022.3 1022.3 0.0
25/01:00am 11.4 10.3 9.8 90 0.8 S 6 6 3 3 1022.4 1022.4 0.0
25/12:30am 11.3 10.6 9.9 91 0.7 S 4 6 2 3 1022.4 1022.4 0.0
25/12:00am 11.0 9.6 9.6 91 0.7 SSE 7 9 4 5 1022.1 1022.1 0.0
 
Date/Time
WST
Tmp

°C
App
Tmp
°C
Dew
Point
°C
Rel
Hum
%
Delta-T

°C
Wind Press
QNH
hPa
Press
MSL
hPa
Rain
since
9 am
mm
Dir
 
Spd
km/h
Gust
km/h
Spd
kts
Gust
kts
24/11:30pm 11.2 9.5 9.8 91 0.7 SSE 9 11 5 6 1022.2 1022.2 0.0
24/11:00pm 11.3 10.2 9.9 91 0.7 S 6 9 3 5 1022.5 1022.5 0.0
24/10:30pm 10.6 9.1 9.0 90 0.8 SSE 7 7 4 4 1022.4 1022.4 0.0
24/10:00pm 10.4 8.9 8.3 87 1.0 SSE 6 9 3 5 1022.3 1022.3 0.0
24/09:30pm 10.6 8.6 8.8 89 0.9 SSE 9 9 5 5 1022.3 1022.3 0.0
24/09:00pm 11.2 9.2 8.8 85 1.2 SSE 9 11 5 6 1022.1 1022.1 0.0
24/08:30pm 11.5 9.2 8.9 84 1.3 SSE 11 11 6 6 1022.0 1022.0 0.0
24/08:00pm 11.9 10.0 9.1 83 1.4 S 9 11 5 6 1021.8 1021.8 0.0
24/07:30pm 11.9 10.0 9.1 83 1.4 SSW 9 9 5 5 1021.8 1021.8 0.0
24/07:00pm 12.6 10.8 9.6 82 1.5 SSW 9 9 5 5 1021.7 1021.7 0.0
24/06:30pm 15.3 14.0 9.9 70 2.8 SSW 7 9 4 5 1021.4 1021.4 0.0

Latest Capital City Observations: Canberra | Sydney | Melbourne | Brisbane | Adelaide | Perth | Hobart | Darwin

Other Formats:

Comma delimited format used in spreadsheet applications
http://www.bom.gov.au/fwo/IDW60901/IDW60901.94609.axf

JavaScript Object Notation format (JSON) in row-major order
http://www.bom.gov.au/fwo/IDW60901/IDW60901.94609.json